Time;durP1;ratioP1;P1;durP2;ratioP2;P2;SDS_P1;SDS_P2;PMS_P1;PMS_P2;Temp;Humidity;BMP_temperature;BMP_pressure;BME280_temperature;BME280_humidity;BME280_pressure;Samples;Min_cycle;Max_cycle;Signal;HPM_P1;HPM_P2
2021/12/20 00:00:39;;;;;;;2.05;1.67;;;6.20;99.90;;;;;;5092460;28;20237;-62
2021/12/20 00:03:06;;;;;;;8.57;2.47;;;6.20;99.90;;;;;;5078915;28;20228;-63
2021/12/20 00:05:33;;;;;;;8.68;2.38;;;6.30;99.90;;;;;;5092607;28;20557;-62
2021/12/20 00:08:01;;;;;;;3.25;2.00;;;6.30;99.90;;;;;;5091630;28;20575;-63
2021/12/20 00:10:29;;;;;;;4.30;1.77;;;6.20;99.90;;;;;;5081589;28;20224;-63
2021/12/20 00:12:55;;;;;;;6.25;3.50;;;6.20;99.90;;;;;;5089553;28;20233;-63
2021/12/20 00:15:22;;;;;;;7.10;4.55;;;6.20;99.90;;;;;;5092564;28;20219;-63
2021/12/20 00:17:49;;;;;;;5.43;3.78;;;6.20;99.90;;;;;;5091765;28;20701;-62
2021/12/20 00:20:17;;;;;;;7.82;2.92;;;6.20;99.90;;;;;;5092399;28;20227;-63
2021/12/20 00:22:44;;;;;;;3.35;2.30;;;6.20;99.90;;;;;;5092090;28;20218;-63
2021/12/20 00:25:12;;;;;;;6.18;2.15;;;6.20;99.90;;;;;;5086436;28;20219;-63
2021/12/20 00:27:39;;;;;;;3.50;2.17;;;6.20;99.90;;;;;;5091567;28;20223;-62
2021/12/20 00:30:08;;;;;;;5.88;1.63;;;6.20;99.90;;;;;;5091695;28;20723;-63
2021/12/20 00:32:34;;;;;;;3.85;1.90;;;6.10;99.90;;;;;;5091986;28;20253;-63
2021/12/20 00:35:01;;;;;;;9.30;6.55;;;6.10;99.90;;;;;;5092765;28;20224;-62
2021/12/20 00:40:21;;;;;;;10.40;5.97;;;6.10;99.90;;;;;;5096052;28;20234;-62
2021/12/20 00:42:48;;;;;;;4.82;2.90;;;6.20;99.90;;;;;;5083502;28;20217;-63
2021/12/20 00:45:16;;;;;;;4.88;2.53;;;6.10;99.90;;;;;;5095725;28;20236;-62
2021/12/20 00:47:43;;;;;;;4.00;1.77;;;6.20;99.90;;;;;;5095666;28;20219;-62
2021/12/20 00:50:12;;;;;;;4.15;1.92;;;6.10;99.90;;;;;;5094806;28;20227;-62
2021/12/20 00:52:40;;;;;;;3.20;1.25;;;6.10;99.90;;;;;;5095735;28;20225;-63
2021/12/20 00:55:09;;;;;;;2.22;2.03;;;6.00;99.90;;;;;;5095173;28;20237;-63
2021/12/20 00:57:37;;;;;;;2.67;1.50;;;6.00;99.90;;;;;;5095935;28;20233;-63
2021/12/20 01:00:06;;;;;;;2.63;1.50;;;6.00;99.90;;;;;;5095117;28;20227;-63
2021/12/20 01:02:33;;;;;;;1.55;1.45;;;6.00;99.90;;;;;;5085539;28;20223;-63
2021/12/20 01:05:00;;;;;;;2.25;1.77;;;6.00;99.90;;;;;;5092527;28;20226;-62
2021/12/20 01:07:28;;;;;;;3.75;1.65;;;6.00;99.90;;;;;;5095866;28;20222;-60
2021/12/20 01:09:58;;;;;;;2.08;1.50;;;6.00;99.90;;;;;;5088449;28;20300;-61
2021/12/20 01:12:28;;;;;;;2.80;1.40;;;6.00;99.90;;;;;;5088974;28;20729;-61
2021/12/20 01:14:59;;;;;;;1.95;1.73;;;6.00;99.90;;;;;;5082439;28;20314;-61
2021/12/20 01:17:27;;;;;;;2.15;1.48;;;5.90;99.90;;;;;;5095401;28;20611;-61
2021/12/20 01:19:54;;;;;;;1.88;1.30;;;5.90;99.90;;;;;;5094906;28;20237;-61
2021/12/20 01:22:21;;;;;;;2.03;1.63;;;5.90;99.90;;;;;;5095424;28;20232;-63
2021/12/20 01:24:47;;;;;;;2.05;1.83;;;5.90;99.90;;;;;;5093602;28;20227;-63
2021/12/20 01:27:14;;;;;;;4.65;1.40;;;5.90;99.90;;;;;;5090492;28;20236;-61
2021/12/20 01:29:41;;;;;;;1.55;1.45;;;5.90;99.90;;;;;;5095347;28;20226;-60
2021/12/20 01:32:09;;;;;;;6.85;3.92;;;5.90;99.90;;;;;;5094367;28;20227;-60
2021/12/20 01:34:36;;;;;;;13.75;7.10;;;5.80;99.90;;;;;;5081979;28;20226;-63
2021/12/20 01:37:03;;;;;;;4.22;1.75;;;5.80;99.90;;;;;;5094621;28;20223;-63
2021/12/20 01:39:30;;;;;;;3.88;1.63;;;5.80;99.90;;;;;;5095145;28;20231;-63
2021/12/20 01:41:59;;;;;;;4.35;1.60;;;5.80;99.90;;;;;;5094673;28;20257;-63
2021/12/20 01:44:26;;;;;;;4.32;1.45;;;5.80;99.90;;;;;;5095415;28;20778;-63
2021/12/20 01:46:53;;;;;;;3.50;1.27;;;5.80;99.90;;;;;;5093911;28;20694;-60
2021/12/20 01:49:21;;;;;;;2.25;1.42;;;5.80;99.90;;;;;;5106228;28;20258;-63
2021/12/20 01:52:02;;;;;;;2.20;1.10;;;5.70;99.90;;;;;;5094787;28;20225;-63
2021/12/20 01:54:29;;;;;;;1.92;1.40;;;5.70;99.90;;;;;;5094609;28;20229;-63
2021/12/20 01:56:56;;;;;;;2.08;1.50;;;5.70;99.90;;;;;;5094811;28;20229;-63
2021/12/20 01:59:23;;;;;;;1.35;1.25;;;5.70;99.90;;;;;;5094303;28;20676;-63
2021/12/20 02:01:50;;;;;;;3.53;1.15;;;5.70;99.90;;;;;;5089878;28;20688;-63
2021/12/20 02:04:19;;;;;;;2.95;1.40;;;5.60;99.90;;;;;;5085860;28;20225;-63
2021/12/20 02:06:48;;;;;;;1.65;1.33;;;5.70;99.90;;;;;;5094736;28;20277;-63
2021/12/20 02:09:17;;;;;;;1.75;1.20;;;5.60;99.90;;;;;;5093196;28;20231;-63
2021/12/20 02:11:47;;;;;;;5.20;1.30;;;5.70;99.90;;;;;;5082324;28;20219;-63
2021/12/20 02:14:15;;;;;;;1.92;1.27;;;5.60;99.90;;;;;;5094089;28;20698;-63
2021/12/20 02:16:43;;;;;;;2.75;1.38;;;5.60;99.90;;;;;;5094555;28;20673;-63
2021/12/20 02:19:13;;;;;;;1.83;1.35;;;5.60;99.90;;;;;;5093737;28;20245;-60
2021/12/20 02:21:45;;;;;;;2.10;1.38;;;5.60;99.90;;;;;;5094584;28;20331;-63
2021/12/20 02:24:13;;;;;;;1.83;1.13;;;5.60;99.90;;;;;;5093744;28;20227;-63
2021/12/20 02:26:40;;;;;;;4.88;1.50;;;5.50;99.90;;;;;;5085350;28;20688;-63
2021/12/20 02:29:09;;;;;;;4.93;1.52;;;5.60;99.90;;;;;;5093724;28;20242;-63
2021/12/20 02:37:20;;;;;;;2.80;1.10;;;5.50;99.90;;;;;;5090472;28;20705;-63
2021/12/20 02:39:48;;;;;;;2.35;1.30;;;5.50;99.90;;;;;;5089749;28;20222;-62
2021/12/20 02:42:19;;;;;;;2.70;0.93;;;5.50;99.90;;;;;;5093602;28;20248;-63
2021/12/20 02:44:48;;;;;;;4.20;1.70;;;5.50;99.90;;;;;;5093953;28;20236;-63
2021/12/20 02:47:26;;;;;;;5.20;1.55;;;5.50;99.90;;;;;;5095614;28;20215;-63
2021/12/20 02:49:53;;;;;;;4.38;2.88;;;5.50;99.90;;;;;;5093165;28;20238;-63
2021/12/20 02:52:21;;;;;;;1.58;1.20;;;5.40;99.90;;;;;;5090570;28;20227;-63
2021/12/20 02:54:48;;;;;;;2.63;1.60;;;5.40;99.90;;;;;;5093593;28;20220;-63
2021/12/20 02:57:15;;;;;;;3.35;1.67;;;5.40;99.90;;;;;;5093071;28;20223;-63
2021/12/20 02:59:42;;;;;;;3.92;2.00;;;5.40;99.90;;;;;;5093419;28;20224;-63
2021/12/20 03:02:11;;;;;;;2.95;1.67;;;5.30;99.90;;;;;;5085908;28;20220;-61
2021/12/20 03:04:39;;;;;;;6.88;1.80;;;5.40;99.90;;;;;;5088173;28;20226;-63
2021/12/20 03:07:08;;;;;;;4.75;2.22;;;5.40;99.90;;;;;;5092896;28;20219;-61
2021/12/20 03:09:41;;;;;;;3.22;1.30;;;5.30;99.90;;;;;;5089591;28;20228;-62
2021/12/20 03:12:12;;;;;;;7.55;2.28;;;5.30;99.90;;;;;;5083479;28;20235;-62
2021/12/20 03:14:42;;;;;;;3.63;1.80;;;5.30;99.90;;;;;;5093180;28;20249;-63
2021/12/20 03:17:10;;;;;;;2.45;1.45;;;5.30;99.90;;;;;;5092885;28;20673;-63
2021/12/20 03:19:37;;;;;;;3.55;1.85;;;5.30;99.90;;;;;;5093155;28;20624;-63
2021/12/20 03:22:05;;;;;;;1.85;1.30;;;5.30;99.90;;;;;;5092561;28;20224;-63
2021/12/20 03:24:35;;;;;;;2.47;1.38;;;5.30;99.90;;;;;;5092829;28;20241;-63
2021/12/20 03:27:04;;;;;;;5.10;1.50;;;5.30;99.90;;;;;;5083849;28;20287;-63
2021/12/20 03:29:31;;;;;;;3.65;1.63;;;5.20;99.90;;;;;;5092737;28;20554;-62
2021/12/20 03:31:58;;;;;;;6.38;2.65;;;5.20;99.90;;;;;;5092600;28;20238;-63
2021/12/20 03:34:25;;;;;;;2.90;1.80;;;5.20;99.90;;;;;;5092954;28;20581;-62
2021/12/20 03:36:51;;;;;;;2.55;1.40;;;5.20;99.90;;;;;;5092940;28;20232;-63
2021/12/20 03:39:19;;;;;;;3.38;1.40;;;5.20;99.90;;;;;;5092292;28;20222;-63
2021/12/20 03:41:45;;;;;;;3.28;1.67;;;5.30;99.90;;;;;;5092896;28;20223;-62
2021/12/20 03:44:14;;;;;;;6.18;1.65;;;5.20;99.90;;;;;;5092309;28;20229;-63
2021/12/20 03:46:41;;;;;;;5.35;1.70;;;5.30;99.90;;;;;;5092517;28;20318;-63
2021/12/20 03:49:08;;;;;;;3.42;1.48;;;5.20;99.90;;;;;;5091864;28;20242;-63
2021/12/20 03:51:36;;;;;;;1.52;1.35;;;5.20;99.90;;;;;;5092650;28;20226;-63
2021/12/20 03:54:03;;;;;;;3.05;1.77;;;5.10;99.90;;;;;;5092149;28;20230;-63
2021/12/20 03:56:30;;;;;;;4.53;1.50;;;5.10;99.90;;;;;;5092626;28;20660;-63
2021/12/20 03:58:57;;;;;;;3.53;1.30;;;5.10;99.90;;;;;;5092252;28;20299;-62
2021/12/20 04:01:26;;;;;;;3.58;1.27;;;5.10;99.90;;;;;;5088479;28;20235;-61
2021/12/20 04:03:53;;;;;;;2.75;1.23;;;5.10;99.90;;;;;;5081390;28;20218;-63
2021/12/20 04:06:20;;;;;;;5.50;2.25;;;5.10;99.90;;;;;;5089891;28;20622;-63
2021/12/20 04:08:48;;;;;;;2.85;1.70;;;5.10;99.90;;;;;;5091178;28;20225;-63
2021/12/20 04:11:15;;;;;;;3.17;1.67;;;5.10;99.90;;;;;;5077110;28;20223;-63
2021/12/20 04:13:42;;;;;;;5.03;2.15;;;5.10;99.90;;;;;;5092594;28;20222;-63
2021/12/20 04:16:09;;;;;;;4.07;1.92;;;5.10;99.90;;;;;;5091844;28;20693;-63
2021/12/20 04:18:37;;;;;;;3.15;1.45;;;5.00;99.90;;;;;;5092461;28;20226;-62
2021/12/20 04:21:04;;;;;;;4.63;2.17;;;5.00;99.90;;;;;;5091614;28;20261;-63
2021/12/20 04:23:31;;;;;;;7.50;2.00;;;5.00;99.90;;;;;;5086325;28;20224;-63
2021/12/20 04:25:58;;;;;;;2.22;1.70;;;5.10;99.90;;;;;;5081807;28;20237;-62
2021/12/20 04:28:25;;;;;;;2.97;2.20;;;5.10;99.90;;;;;;5092408;28;20237;-63
2021/12/20 04:30:52;;;;;;;2.90;1.90;;;5.00;99.90;;;;;;5091620;28;20223;-63
2021/12/20 04:33:19;;;;;;;4.03;1.70;;;5.00;99.90;;;;;;5091709;28;20222;-63
2021/12/20 04:35:50;;;;;;;2.45;2.05;;;5.00;99.90;;;;;;5091881;28;20221;-63
2021/12/20 04:38:17;;;;;;;3.28;1.27;;;5.00;99.90;;;;;;5091880;28;20338;-63
2021/12/20 04:40:44;;;;;;;5.57;1.60;;;5.00;99.90;;;;;;5091976;28;20235;-63
2021/12/20 04:43:11;;;;;;;1.50;1.40;;;5.00;99.90;;;;;;5091600;28;20216;-63
2021/12/20 04:45:38;;;;;;;3.38;1.77;;;4.90;99.90;;;;;;5091690;28;20231;-63
2021/12/20 04:48:05;;;;;;;2.50;1.52;;;4.90;99.90;;;;;;5091999;28;20548;-63
2021/12/20 04:50:33;;;;;;;6.15;1.52;;;4.90;99.90;;;;;;5078868;28;20235;-62
2021/12/20 04:53:02;;;;;;;8.18;1.80;;;4.90;99.90;;;;;;5091398;28;20234;-63
2021/12/20 04:55:29;;;;;;;2.70;1.45;;;4.90;99.90;;;;;;5091998;28;20226;-63
2021/12/20 04:57:57;;;;;;;2.08;1.23;;;4.90;99.90;;;;;;5092186;28;20681;-63
2021/12/20 05:00:27;;;;;;;4.40;1.48;;;4.90;99.90;;;;;;5083038;28;20227;-63
2021/12/20 05:02:54;;;;;;;3.80;1.70;;;4.90;99.90;;;;;;5079273;28;20227;-63
2021/12/20 05:05:22;;;;;;;8.13;2.72;;;4.90;99.90;;;;;;5091405;28;20227;-63
2021/12/20 05:07:49;;;;;;;3.83;1.60;;;4.90;99.90;;;;;;5091301;28;20231;-63
2021/12/20 05:10:31;;;;;;;4.57;1.77;;;4.90;99.90;;;;;;5085779;28;20223;-63
2021/12/20 05:13:00;;;;;;;5.28;2.47;;;4.80;99.90;;;;;;5089632;28;20232;-63
2021/12/20 05:15:28;;;;;;;5.28;1.85;;;4.90;99.90;;;;;;5091520;28;20917;-63
2021/12/20 05:17:55;;;;;;;10.23;4.45;;;4.90;99.90;;;;;;5091503;28;20241;-63
2021/12/20 05:20:22;;;;;;;5.20;1.90;;;4.80;99.90;;;;;;5091606;28;20312;-63
2021/12/20 05:22:50;;;;;;;5.47;1.80;;;4.90;99.90;;;;;;5095189;28;20237;-63
2021/12/20 05:25:18;;;;;;;4.55;1.80;;;4.80;99.90;;;;;;5088524;28;20662;-63
2021/12/20 05:27:46;;;;;;;2.83;1.75;;;4.70;99.90;;;;;;5093154;28;20223;-63
2021/12/20 05:30:15;;;;;;;3.08;1.85;;;4.70;99.90;;;;;;5094768;28;20680;-63
2021/12/20 05:32:42;;;;;;;2.78;1.65;;;4.80;99.90;;;;;;5095034;28;20223;-63
2021/12/20 05:35:11;;;;;;;4.55;1.70;;;4.80;99.90;;;;;;5092559;28;20219;-62
2021/12/20 05:37:38;;;;;;;4.38;1.70;;;4.80;99.90;;;;;;5083792;28;20226;-63
2021/12/20 05:40:08;;;;;;;4.22;1.88;;;4.70;99.90;;;;;;5088670;28;20245;-63
2021/12/20 05:42:36;;;;;;;4.93;2.30;;;4.70;99.90;;;;;;5087655;28;20709;-63
2021/12/20 05:45:03;;;;;;;3.65;1.90;;;4.70;99.90;;;;;;5094976;28;20227;-63
2021/12/20 05:47:30;;;;;;;4.45;1.77;;;4.70;99.90;;;;;;5100450;28;20218;-63
2021/12/20 05:49:57;;;;;;;2.88;1.63;;;4.70;99.90;;;;;;5100619;28;20237;-63
2021/12/20 05:52:24;;;;;;;5.78;2.60;;;4.70;99.90;;;;;;5094445;28;20245;-63
2021/12/20 05:54:51;;;;;;;9.82;2.20;;;4.70;99.90;;;;;;5094751;28;20246;-62
2021/12/20 05:57:21;;;;;;;1.85;1.60;;;4.70;99.90;;;;;;5093655;28;20241;-63
2021/12/20 05:59:49;;;;;;;2.28;1.70;;;4.70;99.90;;;;;;5085961;28;20237;-61
2021/12/20 06:02:16;;;;;;;2.15;1.45;;;4.70;99.90;;;;;;5080843;28;20210;-62
2021/12/20 06:04:43;;;;;;;6.55;2.40;;;4.70;99.90;;;;;;5093431;28;20233;-63
2021/12/20 06:07:10;;;;;;;3.53;2.03;;;4.80;99.90;;;;;;5094242;28;20311;-63
2021/12/20 06:09:37;;;;;;;6.53;2.85;;;4.70;99.90;;;;;;5090742;28;20237;-63
2021/12/20 06:12:04;;;;;;;2.60;1.90;;;4.70;99.90;;;;;;5085273;28;20232;-63
2021/12/20 06:14:31;;;;;;;11.43;2.35;;;4.70;99.90;;;;;;5093744;28;20234;-63
2021/12/20 06:17:00;;;;;;;6.40;2.60;;;4.80;99.90;;;;;;5093956;28;20233;-63
2021/12/20 06:19:27;;;;;;;2.45;2.00;;;4.70;99.90;;;;;;5091633;28;20680;-63
2021/12/20 06:21:55;;;;;;;7.13;3.13;;;4.80;99.90;;;;;;5093056;28;20340;-63
2021/12/20 06:24:22;;;;;;;3.25;1.70;;;4.80;99.90;;;;;;5092748;28;20233;-63
2021/12/20 06:26:50;;;;;;;6.35;1.80;;;4.80;99.90;;;;;;5084623;28;20287;-63
2021/12/20 06:29:17;;;;;;;4.85;2.13;;;4.80;99.90;;;;;;5092337;28;20302;-63
2021/12/20 06:31:44;;;;;;;4.47;2.20;;;4.80;99.90;;;;;;5093399;28;20245;-63
2021/12/20 06:34:13;;;;;;;4.30;2.42;;;4.80;99.90;;;;;;5092227;28;20227;-63
2021/12/20 06:36:41;;;;;;;3.30;1.90;;;4.70;99.90;;;;;;5094070;28;20223;-63
2021/12/20 06:39:07;;;;;;;6.28;2.72;;;4.70;99.90;;;;;;5094086;28;20227;-63
2021/12/20 06:41:34;;;;;;;6.43;4.00;;;4.80;99.90;;;;;;5088210;28;20560;-63
2021/12/20 06:44:04;;;;;;;8.05;3.40;;;4.80;99.90;;;;;;5091512;28;20551;-63
2021/12/20 06:46:31;;;;;;;11.50;6.50;;;4.80;99.90;;;;;;5091556;28;20309;-63
2021/12/20 06:48:59;;;;;;;7.10;5.18;;;4.80;99.90;;;;;;5093483;28;20677;-63
2021/12/20 06:51:27;;;;;;;3.85;3.10;;;4.80;99.90;;;;;;5093399;28;20251;-63
2021/12/20 06:53:55;;;;;;;6.70;3.80;;;4.80;99.90;;;;;;5092843;28;20241;-63
2021/12/20 06:56:22;;;;;;;9.85;5.30;;;4.80;99.90;;;;;;5093237;28;20227;-63
2021/12/20 06:58:52;;;;;;;5.40;3.30;;;4.80;99.90;;;;;;5093339;28;20231;-63
2021/12/20 07:01:20;;;;;;;6.07;2.78;;;4.80;99.90;;;;;;5092551;28;20240;-63
2021/12/20 07:03:47;;;;;;;9.40;4.30;;;4.80;99.90;;;;;;5088521;28;20219;-63
2021/12/20 07:06:14;;;;;;;6.90;4.70;;;4.80;99.90;;;;;;5092733;28;20222;-63
2021/12/20 07:08:42;;;;;;;7.90;4.68;;;4.80;99.90;;;;;;5093524;28;20540;-63
2021/12/20 07:11:10;;;;;;;10.23;3.10;;;4.80;99.90;;;;;;5090226;28;20239;-63
2021/12/20 07:13:38;;;;;;;5.47;2.78;;;4.80;99.90;;;;;;5092866;28;20617;-63
2021/12/20 07:16:05;;;;;;;4.60;2.67;;;4.80;99.90;;;;;;5093238;28;20287;-63
2021/12/20 07:18:32;;;;;;;6.78;3.13;;;4.80;99.90;;;;;;5092779;28;20273;-63
2021/12/20 07:20:59;;;;;;;7.15;4.40;;;4.70;99.90;;;;;;5093087;28;20245;-63
2021/12/20 07:23:26;;;;;;;7.40;3.20;;;4.70;99.90;;;;;;5092943;28;20226;-63
2021/12/20 07:25:54;;;;;;;10.02;3.83;;;4.80;99.90;;;;;;5092789;28;20225;-63
2021/12/20 07:28:21;;;;;;;4.30;2.65;;;4.80;99.90;;;;;;5092494;28;20222;-63
2021/12/20 07:30:49;;;;;;;4.22;3.20;;;4.80;99.90;;;;;;5093093;28;20244;-63
2021/12/20 07:33:16;;;;;;;5.75;3.33;;;4.80;99.90;;;;;;5092462;28;20276;-62
2021/12/20 07:35:44;;;;;;;7.47;3.17;;;4.80;99.90;;;;;;5092971;28;20554;-63
2021/12/20 07:38:13;;;;;;;11.07;2.80;;;4.80;99.90;;;;;;5092776;28;20222;-63
2021/12/20 07:40:43;;;;;;;4.25;2.63;;;4.80;99.90;;;;;;5092029;28;20224;-63
2021/12/20 07:43:12;;;;;;;5.20;2.88;;;4.80;99.90;;;;;;5083682;28;20230;-63
2021/12/20 07:45:38;;;;;;;4.60;2.75;;;4.80;99.90;;;;;;5090300;28;20226;-64
2021/12/20 07:48:05;;;;;;;7.07;3.75;;;4.80;99.90;;;;;;5092844;28;20234;-63
2021/12/20 07:50:32;;;;;;;4.75;3.17;;;4.90;99.90;;;;;;5091797;28;20264;-63
2021/12/20 07:52:59;;;;;;;8.38;4.43;;;4.80;99.90;;;;;;5092541;28;20668;-63
2021/12/20 07:55:27;;;;;;;10.98;5.88;;;4.80;99.90;;;;;;5092056;28;20240;-63
2021/12/20 07:57:53;;;;;;;9.55;4.63;;;4.80;99.90;;;;;;5091070;28;20237;-63
2021/12/20 08:00:22;;;;;;;8.60;5.15;;;4.90;99.90;;;;;;5091992;28;20703;-63
2021/12/20 08:02:48;;;;;;;7.25;4.20;;;4.90;99.90;;;;;;5092376;28;20230;-63
2021/12/20 08:05:19;;;;;;;3.85;2.53;;;4.80;99.90;;;;;;5085292;28;20317;-63
2021/12/20 08:07:48;;;;;;;8.20;3.38;;;4.80;99.90;;;;;;5092225;28;20574;-62
2021/12/20 08:10:17;;;;;;;5.70;2.88;;;4.80;99.90;;;;;;5092299;28;20237;-63
2021/12/20 08:12:44;;;;;;;6.63;3.00;;;4.80;99.90;;;;;;5091804;28;20591;-63
2021/12/20 08:15:11;;;;;;;4.15;2.47;;;4.70;99.90;;;;;;5092287;28;20224;-63
2021/12/20 08:17:39;;;;;;;12.55;4.25;;;4.80;99.90;;;;;;5091895;28;20569;-63
2021/12/20 08:20:08;;;;;;;5.07;3.50;;;4.80;99.90;;;;;;5092404;28;20233;-63
2021/12/20 08:22:35;;;;;;;8.20;4.10;;;4.70;99.90;;;;;;5089119;28;20568;-63
2021/12/20 08:25:02;;;;;;;5.18;2.97;;;4.80;99.90;;;;;;5092078;28;20303;-63
2021/12/20 08:27:29;;;;;;;6.18;2.85;;;4.80;99.90;;;;;;5091704;28;20234;-63
2021/12/20 08:29:56;;;;;;;2.40;2.20;;;4.80;99.90;;;;;;5092337;28;20228;-63
2021/12/20 08:32:23;;;;;;;6.40;3.00;;;4.80;99.90;;;;;;5091166;28;20230;-62
2021/12/20 08:34:51;;;;;;;14.02;4.63;;;4.80;99.90;;;;;;5092348;28;20226;-63
2021/12/20 08:37:18;;;;;;;6.85;3.30;;;4.80;99.90;;;;;;5091664;28;20226;-63
2021/12/20 08:39:45;;;;;;;8.52;3.13;;;4.80;99.90;;;;;;5091481;28;20677;-63
2021/12/20 08:42:12;;;;;;;7.35;2.72;;;4.80;99.90;;;;;;5091623;28;20219;-63
2021/12/20 08:44:39;;;;;;;5.65;2.55;;;4.90;99.90;;;;;;5091396;28;20597;-63
2021/12/20 08:47:07;;;;;;;6.55;2.75;;;4.90;99.90;;;;;;5092236;28;20214;-63
2021/12/20 08:49:33;;;;;;;6.63;3.45;;;4.90;99.90;;;;;;5091754;28;20695;-63
2021/12/20 08:52:02;;;;;;;6.18;2.85;;;5.00;99.90;;;;;;5092041;28;20222;-63
2021/12/20 08:54:29;;;;;;;7.30;3.22;;;5.00;99.90;;;;;;5091716;28;20217;-63
2021/12/20 08:56:57;;;;;;;11.32;3.65;;;5.00;99.90;;;;;;5094829;28;20222;-63
2021/12/20 08:59:24;;;;;;;4.40;2.83;;;5.00;99.90;;;;;;5096056;28;20239;-63
2021/12/20 09:01:51;;;;;;;3.00;2.72;;;5.10;99.90;;;;;;5096021;28;20228;-63
2021/12/20 09:04:18;;;;;;;6.57;2.78;;;5.10;99.90;;;;;;5095995;28;20233;-63
2021/12/20 09:06:46;;;;;;;4.30;3.33;;;5.20;99.90;;;;;;5095465;28;20219;-63
2021/12/20 09:09:15;;;;;;;6.60;3.53;;;5.20;99.90;;;;;;5095912;28;20241;-62
2021/12/20 09:11:43;;;;;;;7.63;3.40;;;5.20;99.90;;;;;;5095532;28;20279;-63
2021/12/20 09:14:10;;;;;;;5.15;3.15;;;5.20;99.90;;;;;;5095920;28;20706;-63
2021/12/20 09:16:37;;;;;;;5.40;2.50;;;5.20;99.90;;;;;;5095318;28;20249;-63
2021/12/20 09:19:04;;;;;;;7.00;3.00;;;5.20;99.90;;;;;;5096147;28;20223;-63
2021/12/20 09:21:31;;;;;;;5.07;3.00;;;5.20;99.90;;;;;;5095310;28;20236;-62
2021/12/20 09:23:58;;;;;;;5.22;2.50;;;5.20;99.90;;;;;;5095779;28;20227;-63
2021/12/20 09:26:26;;;;;;;3.95;2.70;;;5.20;99.90;;;;;;5095864;28;20219;-63
2021/12/20 09:28:53;;;;;;;4.13;3.20;;;5.30;99.90;;;;;;5095253;28;20228;-63
2021/12/20 09:31:20;;;;;;;11.00;3.05;;;5.30;99.90;;;;;;5095458;28;20676;-63
2021/12/20 09:33:47;;;;;;;10.63;2.63;;;5.30;99.90;;;;;;5094965;28;20232;-63
2021/12/20 09:36:14;;;;;;;3.72;2.22;;;5.30;99.90;;;;;;5095518;28;20220;-63
2021/12/20 09:38:41;;;;;;;3.13;2.58;;;5.30;99.90;;;;;;5095110;28;20222;-62
2021/12/20 09:41:28;;;;;;;8.70;3.90;;;5.40;99.90;;;;;;5095262;28;20706;-63
2021/12/20 09:43:59;;;;;;;5.72;3.42;;;5.40;99.90;;;;;;5095179;28;21016;-62
2021/12/20 09:46:29;;;;;;;3.58;3.20;;;5.40;99.90;;;;;;5095252;28;20427;-63
2021/12/20 09:48:57;;;;;;;4.18;2.88;;;5.50;99.90;;;;;;5094992;28;20233;-62
2021/12/20 09:51:25;;;;;;;7.03;2.80;;;5.50;99.90;;;;;;5095273;28;20267;-63
2021/12/20 09:53:52;;;;;;;6.63;2.85;;;5.50;99.90;;;;;;5094592;28;20580;-63
2021/12/20 09:56:20;;;;;;;2.95;2.47;;;5.60;99.90;;;;;;5095254;28;20229;-63
2021/12/20 09:58:50;;;;;;;4.78;2.25;;;5.60;99.90;;;;;;5094572;28;20695;-63
2021/12/20 10:01:21;;;;;;;4.20;3.67;;;5.70;99.90;;;;;;5094831;28;20230;-63
2021/12/20 10:03:48;;;;;;;11.20;5.35;;;5.70;99.90;;;;;;5094317;28;20233;-63
2021/12/20 10:06:16;;;;;;;8.57;4.97;;;5.80;99.90;;;;;;5094925;28;20685;-63
2021/12/20 10:08:50;;;;;;;5.10;3.00;;;5.80;99.90;;;;;;5093266;28;20696;-63
2021/12/20 10:11:19;;;;;;;6.63;3.28;;;5.80;99.90;;;;;;5094719;28;20572;-63
2021/12/20 10:13:50;;;;;;;8.05;3.17;;;5.80;99.90;;;;;;5094209;28;20234;-63
2021/12/20 10:16:20;;;;;;;4.78;2.78;;;5.80;99.90;;;;;;5094774;28;20215;-63
2021/12/20 10:18:49;;;;;;;5.28;2.70;;;5.90;99.90;;;;;;5094095;28;20328;-63
2021/12/20 10:21:18;;;;;;;6.13;2.42;;;5.90;99.90;;;;;;5094757;28;20223;-63
2021/12/20 10:23:49;;;;;;;5.40;2.97;;;5.90;99.90;;;;;;5093970;28;20215;-63
2021/12/20 10:26:19;;;;;;;6.05;3.22;;;6.00;99.90;;;;;;5094535;28;20561;-63
2021/12/20 10:28:47;;;;;;;7.55;5.43;;;6.00;99.90;;;;;;5093923;28;20218;-63
2021/12/20 10:31:16;;;;;;;6.70;3.65;;;6.00;99.90;;;;;;5094307;28;20227;-63
2021/12/20 10:33:52;;;;;;;3.65;3.33;;;6.00;99.90;;;;;;5093833;28;20224;-62
2021/12/20 10:36:19;;;;;;;9.30;3.38;;;6.00;99.90;;;;;;5094163;28;20225;-63
2021/12/20 10:38:49;;;;;;;3.88;2.75;;;6.00;99.90;;;;;;5093781;28;20219;-62
2021/12/20 10:41:19;;;;;;;6.45;2.95;;;6.00;99.90;;;;;;5094154;28;20223;-62
2021/12/20 10:43:50;;;;;;;3.78;2.50;;;6.10;99.90;;;;;;5093833;28;20239;-61
2021/12/20 10:46:19;;;;;;;3.72;2.65;;;6.10;99.90;;;;;;5094221;28;20219;-63
2021/12/20 10:48:49;;;;;;;3.15;2.50;;;6.10;99.90;;;;;;5093308;28;20232;-61
2021/12/20 10:51:24;;;;;;;5.28;2.50;;;6.20;99.90;;;;;;5094000;28;20731;-61
2021/12/20 10:53:58;;;;;;;5.65;3.35;;;6.20;99.90;;;;;;5093211;28;20222;-62
2021/12/20 10:56:25;;;;;;;9.32;3.63;;;6.20;99.90;;;;;;5094004;28;20226;-62
2021/12/20 10:58:53;;;;;;;8.60;3.67;;;6.20;99.90;;;;;;5093046;28;20223;-62
2021/12/20 11:01:35;;;;;;;5.30;4.32;;;6.20;99.90;;;;;;5093776;28;20344;-62
2021/12/20 11:04:07;;;;;;;10.25;3.83;;;6.30;99.90;;;;;;5093514;28;20822;-62
2021/12/20 11:06:57;;;;;;;5.05;2.90;;;6.30;99.90;;;;;;5093716;28;20292;-62
2021/12/20 11:09:29;;;;;;;5.72;3.45;;;6.30;99.90;;;;;;5093315;28;20230;-62
2021/12/20 11:11:58;;;;;;;5.15;3.30;;;6.40;99.90;;;;;;5093698;28;20300;-62
2021/12/20 11:14:29;;;;;;;6.28;3.75;;;6.40;99.90;;;;;;5092935;28;20312;-62
2021/12/20 11:16:58;;;;;;;4.35;3.47;;;6.50;99.90;;;;;;5093534;28;20219;-62
2021/12/20 11:19:28;;;;;;;7.05;3.42;;;6.50;99.90;;;;;;5093011;28;20226;-62
2021/12/20 11:22:05;;;;;;;9.18;3.33;;;6.50;99.90;;;;;;5093597;28;20324;-62
2021/12/20 11:24:35;;;;;;;10.13;3.05;;;6.50;99.90;;;;;;5092846;28;20234;-62
2021/12/20 11:27:04;;;;;;;6.95;3.20;;;6.50;99.90;;;;;;5093421;28;20241;-62
2021/12/20 11:29:32;;;;;;;6.35;2.45;;;6.60;99.90;;;;;;5092723;28;20685;-62
2021/12/20 11:32:00;;;;;;;3.90;2.30;;;6.60;99.90;;;;;;5093227;28;20224;-62
2021/12/20 11:34:29;;;;;;;4.50;2.20;;;6.70;99.90;;;;;;5092928;28;20697;-62
2021/12/20 11:36:57;;;;;;;4.38;2.40;;;6.70;99.90;;;;;;5093408;28;20223;-62
2021/12/20 11:39:25;;;;;;;4.72;2.35;;;6.70;99.90;;;;;;5092164;28;20241;-62
2021/12/20 11:41:52;;;;;;;6.25;2.50;;;6.70;99.90;;;;;;5093044;28;20238;-62
2021/12/20 11:44:23;;;;;;;6.95;3.60;;;6.60;99.90;;;;;;5093184;28;20574;-62
2021/12/20 11:47:11;;;;;;;5.65;2.80;;;6.70;99.90;;;;;;5092735;28;20223;-62
2021/12/20 11:49:39;;;;;;;3.95;2.30;;;6.70;99.90;;;;;;5092266;28;20234;-62
2021/12/20 11:52:13;;;;;;;9.90;3.53;;;6.70;99.90;;;;;;5092972;28;20223;-62
2021/12/20 11:54:46;;;;;;;5.35;2.35;;;6.80;99.90;;;;;;5092437;28;20223;-62
2021/12/20 11:57:39;;;;;;;3.88;2.65;;;6.80;99.90;;;;;;5092832;28;20226;-62
2021/12/20 12:00:23;;;;;;;4.43;2.58;;;6.80;99.90;;;;;;5092807;28;20255;-61
2021/12/20 12:02:51;;;;;;;5.45;2.70;;;6.80;99.90;;;;;;5089665;28;20223;-62
2021/12/20 12:05:46;;;;;;;3.65;2.53;;;6.80;99.90;;;;;;5092166;28;20569;-63
2021/12/20 12:08:29;;;;;;;4.88;2.47;;;6.90;99.90;;;;;;5078524;28;20223;-63
2021/12/20 12:10:59;;;;;;;3.05;2.72;;;6.90;99.90;;;;;;5092669;28;20656;-62
2021/12/20 12:13:28;;;;;;;5.38;3.30;;;6.90;99.90;;;;;;5092044;28;20237;-63
2021/12/20 12:16:01;;;;;;;5.97;3.63;;;6.90;99.90;;;;;;5092820;28;20235;-62
2021/12/20 12:18:45;;;;;;;5.00;4.30;;;6.80;99.90;;;;;;5092141;28;20227;-62
2021/12/20 12:21:41;;;;;;;5.32;3.15;;;6.90;99.90;;;;;;5091771;28;20238;-63
2021/12/20 12:24:10;;;;;;;5.13;2.80;;;6.90;99.90;;;;;;5092264;28;20616;-62
2021/12/20 12:26:40;;;;;;;4.13;2.70;;;6.80;99.90;;;;;;5092376;28;20215;-62
2021/12/20 12:29:08;;;;;;;4.97;2.63;;;6.80;99.90;;;;;;5092566;28;20219;-63
2021/12/20 12:31:57;;;;;;;7.15;2.95;;;6.80;99.90;;;;;;5094325;28;20237;-62
2021/12/20 12:34:25;;;;;;;6.15;3.38;;;6.90;99.90;;;;;;5096361;28;20566;-62
2021/12/20 12:37:19;;;;;;;6.55;2.90;;;6.80;99.90;;;;;;5096675;28;20579;-62
2021/12/20 12:39:46;;;;;;;4.40;3.35;;;6.80;99.90;;;;;;5096710;28;20215;-62
2021/12/20 12:42:13;;;;;;;8.20;3.58;;;6.90;99.90;;;;;;5096014;28;20222;-62
2021/12/20 12:44:50;;;;;;;5.15;3.15;;;6.90;99.90;;;;;;5096500;28;20305;-62
2021/12/20 12:47:34;;;;;;;3.47;2.90;;;6.90;99.90;;;;;;5096444;28;21013;-62
2021/12/20 12:50:01;;;;;;;3.15;2.72;;;6.90;99.90;;;;;;5095263;28;20677;-62
2021/12/20 12:52:37;;;;;;;7.38;3.70;;;6.90;99.90;;;;;;5096150;28;20587;-62
2021/12/20 12:55:09;;;;;;;8.32;4.15;;;6.90;99.90;;;;;;5095534;28;20241;-62
2021/12/20 12:57:38;;;;;;;9.80;3.50;;;6.90;99.90;;;;;;5096422;28;20264;-63
2021/12/20 13:00:32;;;;;;;6.40;4.03;;;6.90;99.90;;;;;;5095410;28;20227;-62
2021/12/20 13:03:17;;;;;;;5.38;3.10;;;6.90;99.90;;;;;;5095611;28;20230;-62
2021/12/20 13:05:44;;;;;;;6.80;3.80;;;6.90;99.90;;;;;;5096034;28;20219;-62
2021/12/20 13:08:13;;;;;;;5.65;3.70;;;6.90;99.90;;;;;;5095307;28;20556;-62
2021/12/20 13:10:42;;;;;;;5.15;3.30;;;7.00;99.90;;;;;;5096043;28;20223;-62
2021/12/20 13:13:16;;;;;;;5.10;3.70;;;7.00;99.90;;;;;;5095449;28;20242;-62